createdAt,value
2019-02-06T00:01:21.827Z,31.73
2019-02-06T00:06:19.092Z,42.13
2019-02-06T00:11:15.998Z,37.23
2019-02-06T00:16:13.421Z,33.77
2019-02-06T00:21:10.184Z,34.97
2019-02-06T00:26:07.144Z,40.73
2019-02-06T00:31:04.100Z,36.70
2019-02-06T00:36:01.286Z,39.67
2019-02-06T00:40:58.222Z,33.30
2019-02-06T00:45:55.582Z,31.70
2019-02-06T00:50:52.494Z,31.47
2019-02-06T00:55:49.437Z,31.93
2019-02-06T01:00:46.354Z,35.43
2019-02-06T01:05:43.397Z,38.07
2019-02-06T01:10:40.319Z,35.53
2019-02-06T01:15:37.378Z,33.67
2019-02-06T01:20:34.293Z,30.87
2019-02-06T01:25:31.439Z,28.97
2019-02-06T01:30:30.197Z,27.07
2019-02-06T01:35:27.466Z,30.83
2019-02-06T01:40:24.397Z,24.73
2019-02-06T01:45:21.843Z,25.53
2019-02-06T01:50:18.951Z,28.93
2019-02-06T01:55:16.009Z,28.80
2019-02-06T02:00:23.041Z,28.87
2019-02-06T02:05:21.593Z,29.47
2019-02-06T02:10:19.610Z,31.90
2019-02-06T02:15:18.331Z,34.80
2019-02-06T02:20:22.874Z,33.30
2019-02-06T02:25:20.001Z,34.97
2019-02-06T02:30:25.507Z,33.47
2019-02-06T02:35:22.566Z,40.60
2019-02-06T02:40:19.510Z,35.83
2019-02-06T02:45:17.926Z,42.23
2019-02-06T02:50:15.298Z,36.57
2019-02-06T02:55:13.209Z,39.97
2019-02-06T03:00:20.510Z,34.50
2019-02-06T03:05:18.721Z,40.53
2019-02-06T03:10:16.253Z,41.43
2019-02-06T03:15:13.478Z,35.27
2019-02-06T03:20:12.421Z,42.27
2019-02-06T03:25:13.252Z,37.73
2019-02-06T03:30:17.397Z,37.50
2019-02-06T03:35:14.416Z,38.07
2019-02-06T03:40:17.057Z,36.33
2019-02-06T03:45:14.244Z,35.50
2019-02-06T03:50:17.444Z,35.07
2019-02-06T03:55:14.666Z,31.50
2019-02-06T04:00:15.326Z,35.63
2019-02-06T04:05:12.940Z,35.50
2019-02-06T04:10:16.299Z,34.43
2019-02-06T04:15:14.635Z,37.87
2019-02-06T04:20:13.750Z,36.53
2019-02-06T04:25:13.063Z,33.00
2019-02-06T04:30:18.593Z,35.03
2019-02-06T04:35:15.608Z,41.03
2019-02-06T04:40:17.879Z,34.20
2019-02-06T04:45:17.898Z,39.47
2019-02-06T04:50:18.362Z,38.27
2019-02-06T04:55:17.165Z,36.37
2019-02-06T05:00:24.231Z,39.43
2019-02-06T05:05:21.136Z,41.13
2019-02-06T05:10:18.104Z,40.50
2019-02-06T05:15:16.903Z,44.40
2019-02-06T05:20:31.254Z,37.07
2019-02-06T05:25:28.175Z,36.13
2019-02-06T05:30:25.127Z,38.23
2019-02-06T05:35:22.152Z,38.87
2019-02-06T05:40:19.149Z,44.63
2019-02-06T05:45:16.454Z,41.33
2019-02-06T05:50:16.840Z,37.03
2019-02-06T05:55:16.422Z,37.33
2019-02-06T06:00:25.418Z,35.23
2019-02-06T06:05:23.130Z,29.93
2019-02-06T06:10:20.262Z,28.60
2019-02-06T06:15:19.273Z,40.37
2019-02-06T06:20:18.842Z,51.20
2019-02-06T06:25:18.189Z,53.10
2019-02-06T06:30:19.006Z,52.70
2019-02-06T06:35:16.113Z,47.87
2019-02-06T06:40:20.416Z,46.87
2019-02-06T06:45:21.126Z,51.93
2019-02-06T06:50:21.981Z,45.70
2019-02-06T06:55:19.198Z,51.47
2019-02-06T07:00:26.432Z,41.17
2019-02-06T07:05:23.387Z,46.83
2019-02-06T07:10:20.345Z,58.17
2019-02-06T07:15:24.080Z,57.17
2019-02-06T07:20:20.989Z,69.67
2019-02-06T07:25:18.767Z,39.50
2019-02-06T07:30:33.676Z,33.17
2019-02-06T07:35:30.633Z,31.90
2019-02-06T07:40:28.932Z,37.60
2019-02-06T07:45:25.840Z,32.83
2019-02-06T07:50:29.698Z,33.87
2019-02-06T07:55:27.104Z,30.43
2019-02-06T08:00:24.184Z,36.67
2019-02-06T08:05:21.890Z,44.03
2019-02-06T08:10:31.126Z,55.77
2019-02-06T08:15:28.122Z,51.43
2019-02-06T08:20:25.497Z,45.17
2019-02-06T08:25:24.390Z,48.03
2019-02-06T08:30:34.805Z,42.90
2019-02-06T08:35:31.734Z,40.20
2019-02-06T08:40:30.421Z,39.53
2019-02-06T08:45:27.337Z,38.77
2019-02-06T08:50:24.699Z,37.20
2019-02-06T08:55:30.084Z,35.10
2019-02-06T09:00:38.890Z,33.33
2019-02-06T09:05:36.193Z,42.63
2019-02-06T09:10:33.338Z,36.17
2019-02-06T09:15:30.277Z,35.50
2019-02-06T09:20:29.041Z,34.93
2019-02-06T09:25:27.946Z,32.67
2019-02-06T09:30:33.705Z,37.00
2019-02-06T09:35:31.009Z,52.73
2019-02-06T09:40:30.174Z,41.60
2019-02-06T09:45:27.483Z,30.90
2019-02-06T09:50:31.034Z,30.17
2019-02-06T09:55:28.496Z,30.57
2019-02-06T10:00:36.497Z,32.03
2019-02-06T10:05:33.821Z,27.93
2019-02-06T10:10:30.782Z,27.93
2019-02-06T10:15:33.621Z,28.20
2019-02-06T10:20:38.421Z,21.97
2019-02-06T10:25:36.236Z,29.47
2019-02-06T10:30:42.846Z,29.07
2019-02-06T10:35:39.750Z,23.47
2019-02-06T10:40:36.757Z,24.93
2019-02-06T10:45:33.955Z,24.40
2019-02-06T10:50:38.673Z,25.40
2019-02-06T10:55:35.782Z,28.80
2019-02-06T11:00:45.609Z,23.93
2019-02-06T11:05:42.738Z,25.47
2019-02-06T11:10:39.710Z,24.17
2019-02-06T11:15:36.836Z,24.60
2019-02-06T11:20:38.633Z,22.90
2019-02-06T11:25:35.853Z,24.33
2019-02-06T11:30:37.666Z,21.57
2019-02-06T11:35:35.173Z,26.97
2019-02-06T11:40:32.363Z,22.67
2019-02-06T11:45:32.097Z,24.30
2019-02-06T11:50:39.591Z,20.67
2019-02-06T11:55:36.495Z,19.93
2019-02-06T12:00:35.756Z,32.97
2019-02-06T12:05:32.674Z,22.45
2019-02-06T12:10:29.617Z,22.20
2019-02-06T12:15:26.610Z,26.03
2019-02-06T12:20:24.627Z,21.73
2019-02-06T12:25:21.575Z,66.43
2019-02-06T12:30:28.433Z,45.67
2019-02-06T12:35:25.561Z,32.37
2019-02-06T12:40:22.990Z,22.00
2019-02-06T12:45:23.151Z,26.47
2019-02-06T12:50:22.236Z,19.30
2019-02-06T12:55:40.391Z,28.80
2019-02-06T13:00:42.616Z,22.73
2019-02-06T13:05:39.552Z,12.90
2019-02-06T13:10:36.587Z,10.83
2019-02-06T13:15:33.484Z,10.93
2019-02-06T13:20:35.431Z,11.63
2019-02-06T13:25:32.335Z,11.67
2019-02-06T13:30:32.473Z,12.87
2019-02-06T13:35:29.393Z,22.97
2019-02-06T13:40:29.230Z,12.57
2019-02-06T13:45:30.401Z,11.37
2019-02-06T13:50:27.581Z,11.17
2019-02-06T13:55:24.680Z,10.77
2019-02-06T14:00:31.035Z,13.63
2019-02-06T14:05:30.341Z,9.60
2019-02-06T14:10:29.900Z,17.77
2019-02-06T14:15:43.692Z,21.73
2019-02-06T14:20:40.998Z,21.73
2019-02-06T14:25:55.358Z,15.23
2019-02-06T14:31:46.219Z,20.73
2019-02-06T14:37:18.929Z,13.40
2019-02-06T14:42:52.974Z,13.50
2019-02-06T14:48:13.221Z,22.20
2019-02-06T14:53:19.391Z,23.87
2019-02-06T14:58:59.895Z,13.50
2019-02-06T15:04:29.266Z,11.23
2019-02-06T15:09:58.987Z,14.30
2019-02-06T15:15:36.619Z,10.93
2019-02-06T15:21:14.157Z,12.53
2019-02-06T15:26:36.529Z,25.67
2019-02-06T15:31:56.912Z,17.47
2019-02-06T15:37:15.005Z,12.17
2019-02-06T15:42:35.834Z,14.67
2019-02-06T15:47:57.124Z,10.50
2019-02-06T15:53:05.494Z,14.30
2019-02-06T15:58:25.839Z,13.80
2019-02-06T16:04:06.453Z,20.10
2019-02-06T16:09:27.185Z,32.40
2019-02-06T16:14:41.111Z,29.50
2019-02-06T16:19:49.418Z,22.67
2019-02-06T16:25:20.442Z,20.13
2019-02-06T16:30:41.385Z,18.23
2019-02-06T16:35:49.557Z,20.30
2019-02-06T16:41:24.717Z,52.50
2019-02-06T16:47:06.929Z,36.93
2019-02-06T16:52:47.514Z,24.87
2019-02-06T16:58:04.883Z,21.40
2019-02-06T17:03:22.313Z,22.43
2019-02-06T17:08:51.815Z,19.47
2019-02-06T17:13:56.950Z,20.27
2019-02-06T17:19:13.965Z,21.27
2019-02-06T17:24:38.698Z,30.60
2019-02-06T17:30:02.318Z,45.43
2019-02-06T17:35:10.969Z,51.77
2019-02-06T17:40:28.246Z,59.27
2019-02-06T17:45:48.277Z,78.60
2019-02-06T17:51:08.397Z,68.13
2019-02-06T17:56:05.321Z,67.30
2019-02-06T18:01:07.753Z,62.93
2019-02-06T18:06:05.872Z,67.70
2019-02-06T18:11:02.939Z,39.77
2019-02-06T18:15:59.855Z,22.77
2019-02-06T18:20:57.261Z,23.70
2019-02-06T18:25:54.689Z,30.93
2019-02-06T18:30:52.343Z,34.57
2019-02-06T18:35:51.071Z,32.57
2019-02-06T18:40:48.205Z,74.33
2019-02-06T18:45:45.330Z,40.70
2019-02-06T18:50:42.501Z,45.90
2019-02-06T18:55:39.699Z,44.73
2019-02-06T19:00:39.830Z,49.43
2019-02-06T19:05:37.769Z,43.13
2019-02-06T19:10:34.965Z,32.87
2019-02-06T19:15:32.391Z,30.20
2019-02-06T19:20:29.558Z,27.13
2019-02-06T19:25:26.497Z,24.83
2019-02-06T19:30:39.802Z,23.27
2019-02-06T19:35:36.703Z,20.50
2019-02-06T19:40:34.195Z,19.27
2019-02-06T19:45:31.203Z,18.17
2019-02-06T19:50:39.715Z,20.03
2019-02-06T19:55:37.043Z,21.07
2019-02-06T20:00:35.628Z,21.27
2019-02-06T20:05:33.225Z,24.73
2019-02-06T20:10:38.298Z,24.57
2019-02-06T20:15:35.358Z,25.63
2019-02-06T20:20:32.347Z,22.83
2019-02-06T20:25:29.704Z,24.23
2019-02-06T20:30:32.066Z,27.77
2019-02-06T20:35:29.538Z,22.63
2019-02-06T20:40:36.079Z,24.57
2019-02-06T20:45:33.107Z,22.07
2019-02-06T20:50:34.890Z,20.80
2019-02-06T20:55:32.102Z,25.07
2019-02-06T21:00:33.878Z,20.17
2019-02-06T21:05:30.794Z,18.27
2019-02-06T21:10:30.947Z,34.70
2019-02-06T21:15:28.036Z,21.27
2019-02-06T21:20:25.668Z,17.40
2019-02-06T21:25:26.197Z,18.73
2019-02-06T21:30:32.644Z,15.97
2019-02-06T21:35:29.793Z,23.43
2019-02-06T21:40:33.147Z,23.87
2019-02-06T21:45:30.207Z,19.20
2019-02-06T21:50:27.293Z,21.23
2019-02-06T21:55:25.892Z,18.93
2019-02-06T22:00:35.957Z,20.53
2019-02-06T22:05:33.268Z,22.37
2019-02-06T22:10:30.454Z,30.93
2019-02-06T22:15:30.460Z,26.70
2019-02-06T22:20:27.669Z,28.23
2019-02-06T22:25:24.810Z,27.40
2019-02-06T22:30:29.711Z,26.20
2019-02-06T22:35:26.673Z,31.23
2019-02-06T22:40:26.166Z,42.97
2019-02-06T22:45:27.746Z,61.00
2019-02-06T22:50:27.754Z,68.67
2019-02-06T22:55:25.113Z,65.60
2019-02-06T23:00:49.560Z,55.50
2019-02-06T23:05:46.651Z,41.53
2019-02-06T23:10:43.725Z,48.67
2019-02-06T23:15:41.600Z,53.07
2019-02-06T23:20:38.821Z,48.27
2019-02-06T23:25:35.766Z,39.67
2019-02-06T23:30:32.976Z,33.73
2019-02-06T23:35:30.170Z,37.23
2019-02-06T23:40:27.173Z,32.67
2019-02-06T23:45:24.139Z,36.77
2019-02-06T23:50:21.365Z,38.30
2019-02-06T23:55:18.313Z,40.60
